Time;durP1;ratioP1;P1;durP2;ratioP2;P2;SDS_P1;SDS_P2;PMS_P1;PMS_P2;Temp;Humidity;BMP_temperature;BMP_pressure;BME280_temperature;BME280_humidity;BME280_pressure;Samples;Min_cycle;Max_cycle;Signal;HPM_P1;HPM_P2
2021/07/28 00:00:12;;;;;;;34.33;22.00;;;;;;;;;;5063737;28;37417;-75
2021/07/28 00:02:41;;;;;;;36.30;22.42;;;;;;;;;;5068906;28;39076;-75
2021/07/28 00:05:08;;;;;;;37.65;22.35;;;;;;;;;;5067382;28;39718;-76
2021/07/28 00:07:34;;;;;;;30.38;19.05;;;;;;;;;;5067621;28;39070;-76
2021/07/28 00:10:00;;;;;;;36.38;21.48;;;;;;;;;;5068351;28;38271;-75
2021/07/28 00:12:27;;;;;;;42.08;21.13;;;;;;;;;;5065104;28;37834;-76
2021/07/28 00:14:53;;;;;;;38.17;20.73;;;;;;;;;;5067287;28;39043;-75
2021/07/28 00:17:20;;;;;;;36.20;20.75;;;;;;;;;;5066678;28;38408;-75
2021/07/28 00:20:06;;;;;;;34.05;19.40;;;;;;;;;;5068484;28;37488;-75
2021/07/28 00:25:21;;;;;;;30.00;17.98;;;;;;;;;;5066620;28;39330;-75
2021/07/28 00:27:49;;;;;;;33.50;19.02;;;;;;;;;;5066171;28;40316;-75
2021/07/28 00:30:16;;;;;;;30.50;18.98;;;;;;;;;;5063870;28;39085;-75
2021/07/28 00:32:43;;;;;;;34.38;18.25;;;;;;;;;;5068320;28;38623;-75
2021/07/28 00:35:09;;;;;;;24.38;17.05;;;;;;;;;;5062948;28;38622;-76
2021/07/28 00:37:36;;;;;;;29.05;18.30;;;;;;;;;;5068569;28;39384;-75
2021/07/28 00:40:03;;;;;;;31.48;18.38;;;;;;;;;;5064772;28;38761;-75
2021/07/28 00:42:30;;;;;;;33.53;18.67;;;;;;;;;;5054829;28;47418;-75
2021/07/28 00:44:56;;;;;;;30.92;18.17;;;;;;;;;;5047847;28;38291;-76
2021/07/28 00:47:23;;;;;;;30.08;17.80;;;;;;;;;;5046473;28;38198;-76
2021/07/28 00:49:49;;;;;;;32.53;18.48;;;;;;;;;;5045795;28;35679;-75
2021/07/28 00:52:16;;;;;;;27.95;19.13;;;;;;;;;;5045526;28;38107;-75
2021/07/28 00:54:43;;;;;;;32.60;19.20;;;;;;;;;;5047867;28;37390;-75
2021/07/28 00:57:09;;;;;;;30.60;19.08;;;;;;;;;;5048154;28;37735;-76
2021/07/28 00:59:36;;;;;;;34.35;19.92;;;;;;;;;;5066406;28;36040;-75
2021/07/28 01:02:02;;;;;;;35.35;20.00;;;;;;;;;;5066103;28;39155;-76
2021/07/28 01:04:28;;;;;;;41.22;21.25;;;;;;;;;;5066261;28;37537;-76
2021/07/28 01:06:55;;;;;;;38.53;21.60;;;;;;;;;;5065786;28;37620;-75
2021/07/28 01:09:21;;;;;;;39.90;22.42;;;;;;;;;;5066963;28;37924;-75
2021/07/28 01:11:49;;;;;;;40.80;22.38;;;;;;;;;;5064542;28;39543;-76
2021/07/28 01:14:17;;;;;;;42.58;22.98;;;;;;;;;;5064526;28;37753;-76
2021/07/28 01:16:45;;;;;;;39.80;23.15;;;;;;;;;;5066966;28;38358;-78
2021/07/28 01:19:12;;;;;;;41.30;23.60;;;;;;;;;;5064575;28;37469;-76
2021/07/28 01:21:41;;;;;;;42.47;24.75;;;;;;;;;;5064548;28;37846;-75
2021/07/28 01:24:08;;;;;;;43.00;23.85;;;;;;;;;;5066555;28;38749;-75
2021/07/28 01:26:35;;;;;;;44.10;24.70;;;;;;;;;;5064548;28;38530;-75
2021/07/28 01:29:01;;;;;;;34.88;21.55;;;;;;;;;;5066689;28;38218;-75
2021/07/28 01:31:27;;;;;;;45.83;25.48;;;;;;;;;;5063597;28;46581;-76
2021/07/28 01:33:54;;;;;;;45.63;24.33;;;;;;;;;;5049561;28;38727;-76
2021/07/28 01:36:22;;;;;;;42.97;24.02;;;;;;;;;;5047569;28;37851;-76
2021/07/28 01:38:49;;;;;;;44.08;24.63;;;;;;;;;;5067147;28;38148;-75
2021/07/28 01:41:15;;;;;;;43.92;25.38;;;;;;;;;;5065364;28;39883;-76
2021/07/28 01:43:42;;;;;;;43.17;24.70;;;;;;;;;;5065444;28;37947;-75
2021/07/28 01:46:08;;;;;;;41.80;25.13;;;;;;;;;;5065566;28;38438;-77
2021/07/28 01:48:35;;;;;;;35.47;21.63;;;;;;;;;;5048268;28;37509;-75
2021/07/28 01:51:01;;;;;;;37.95;23.13;;;;;;;;;;5067620;28;38470;-75
2021/07/28 01:53:29;;;;;;;43.97;25.27;;;;;;;;;;5066205;28;48835;-75
2021/07/28 01:55:56;;;;;;;40.10;23.80;;;;;;;;;;5049509;28;37670;-76
2021/07/28 01:58:22;;;;;;;46.88;25.45;;;;;;;;;;5065433;28;36751;-75
2021/07/28 02:00:48;;;;;;;43.75;24.58;;;;;;;;;;5065371;28;38230;-75
2021/07/28 02:03:15;;;;;;;45.92;26.10;;;;;;;;;;5066930;28;38534;-75
2021/07/28 02:05:42;;;;;;;51.03;27.15;;;;;;;;;;5049018;28;38690;-75
2021/07/28 02:08:10;;;;;;;48.47;25.38;;;;;;;;;;5066813;28;38259;-75
2021/07/28 02:10:38;;;;;;;51.95;26.73;;;;;;;;;;5067071;28;39983;-75
2021/07/28 02:13:05;;;;;;;50.58;27.88;;;;;;;;;;5066896;28;39425;-76
2021/07/28 02:15:32;;;;;;;48.50;25.98;;;;;;;;;;5063656;28;37040;-75
2021/07/28 02:17:59;;;;;;;52.10;26.23;;;;;;;;;;5068032;28;37264;-75
2021/07/28 02:20:26;;;;;;;44.47;24.40;;;;;;;;;;5046489;28;38117;-75
2021/07/28 02:22:53;;;;;;;41.38;24.98;;;;;;;;;;5047796;28;38566;-75
2021/07/28 02:25:19;;;;;;;40.08;24.80;;;;;;;;;;5065037;28;37888;-75
2021/07/28 02:27:46;;;;;;;52.97;27.17;;;;;;;;;;5067132;28;36526;-75
2021/07/28 02:30:13;;;;;;;46.35;26.08;;;;;;;;;;5064897;28;38588;-75
2021/07/28 02:32:39;;;;;;;41.40;26.05;;;;;;;;;;5066990;28;39521;-75
2021/07/28 02:35:07;;;;;;;50.33;28.38;;;;;;;;;;5064185;28;38527;-75
2021/07/28 02:37:33;;;;;;;46.45;26.70;;;;;;;;;;5064601;28;36451;-75
2021/07/28 02:40:00;;;;;;;40.97;24.35;;;;;;;;;;5064640;28;38220;-75
2021/07/28 02:42:26;;;;;;;46.28;27.98;;;;;;;;;;5063966;28;38144;-75
2021/07/28 02:44:53;;;;;;;51.53;29.08;;;;;;;;;;5064758;28;37094;-75
2021/07/28 02:47:19;;;;;;;51.72;29.08;;;;;;;;;;5046996;28;36600;-76
2021/07/28 02:49:45;;;;;;;49.55;28.23;;;;;;;;;;5066222;28;38741;-75
2021/07/28 02:52:12;;;;;;;44.28;27.02;;;;;;;;;;5065172;28;39195;-76
2021/07/28 02:54:38;;;;;;;48.65;28.20;;;;;;;;;;5048425;28;38105;-75
2021/07/28 02:57:04;;;;;;;44.38;27.40;;;;;;;;;;5046326;28;35773;-75
2021/07/28 02:59:31;;;;;;;40.67;27.08;;;;;;;;;;5050995;28;37587;-76
2021/07/28 03:01:57;;;;;;;43.80;28.42;;;;;;;;;;5052038;28;39286;-76
2021/07/28 03:04:23;;;;;;;48.38;30.00;;;;;;;;;;5069690;28;38739;-75
2021/07/28 03:06:50;;;;;;;47.55;30.55;;;;;;;;;;5051966;28;35701;-76
2021/07/28 03:09:16;;;;;;;51.78;29.95;;;;;;;;;;5061346;28;39825;-76
2021/07/28 03:11:43;;;;;;;48.60;30.70;;;;;;;;;;5070018;28;38564;-76
2021/07/28 03:14:09;;;;;;;47.42;29.55;;;;;;;;;;5051058;28;38164;-76
2021/07/28 03:16:35;;;;;;;44.25;29.55;;;;;;;;;;5051338;28;37997;-76
2021/07/28 03:19:02;;;;;;;46.53;29.55;;;;;;;;;;5068592;28;42127;-75
2021/07/28 03:21:28;;;;;;;46.97;27.88;;;;;;;;;;5067604;28;38513;-76
2021/07/28 03:23:54;;;;;;;33.75;25.52;;;;;;;;;;5069466;28;38346;-76
2021/07/28 03:26:21;;;;;;;36.60;27.08;;;;;;;;;;5066660;28;35821;-76
2021/07/28 03:28:47;;;;;;;43.88;27.92;;;;;;;;;;5069385;28;39189;-76
2021/07/28 03:31:14;;;;;;;43.97;28.15;;;;;;;;;;5040193;28;38838;-75
2021/07/28 03:33:40;;;;;;;46.85;28.33;;;;;;;;;;5023152;28;41663;-75
2021/07/28 03:36:06;;;;;;;44.08;27.42;;;;;;;;;;5046841;28;36653;-76
2021/07/28 03:38:33;;;;;;;43.63;28.98;;;;;;;;;;5049794;28;38590;-75
2021/07/28 03:40:59;;;;;;;39.30;27.63;;;;;;;;;;5068770;28;38403;-75
2021/07/28 03:43:25;;;;;;;42.97;28.95;;;;;;;;;;5048734;28;37267;-76
2021/07/28 03:45:53;;;;;;;43.30;28.20;;;;;;;;;;5067475;28;37232;-75
2021/07/28 03:48:19;;;;;;;44.13;29.58;;;;;;;;;;5067404;28;39136;-75
2021/07/28 03:50:46;;;;;;;46.53;29.75;;;;;;;;;;5066389;28;37614;-75
2021/07/28 03:53:13;;;;;;;45.17;27.95;;;;;;;;;;5067345;28;38242;-76
2021/07/28 03:55:39;;;;;;;37.08;26.88;;;;;;;;;;5066820;28;37642;-75
2021/07/28 03:58:05;;;;;;;36.78;26.67;;;;;;;;;;5066423;28;41819;-75
2021/07/28 04:00:32;;;;;;;44.88;27.52;;;;;;;;;;5066735;28;38253;-75
2021/07/28 04:02:58;;;;;;;41.05;27.60;;;;;;;;;;5069213;28;38025;-75
2021/07/28 04:05:25;;;;;;;45.33;27.88;;;;;;;;;;5065069;28;36255;-75
2021/07/28 04:07:56;;;;;;;48.58;29.40;;;;;;;;;;5067731;28;38809;-76
2021/07/28 04:10:22;;;;;;;41.83;25.23;;;;;;;;;;5048373;28;38533;-78
2021/07/28 04:12:48;;;;;;;40.75;26.52;;;;;;;;;;5050132;28;36819;-77
2021/07/28 04:15:15;;;;;;;38.00;27.27;;;;;;;;;;5047681;28;35925;-75
2021/07/28 04:17:41;;;;;;;41.42;25.98;;;;;;;;;;5050092;28;39732;-75
2021/07/28 04:20:08;;;;;;;38.47;24.75;;;;;;;;;;5066521;28;38638;-77
2021/07/28 04:22:34;;;;;;;38.65;25.50;;;;;;;;;;5067272;28;39493;-75
2021/07/28 04:25:05;;;;;;;38.25;24.75;;;;;;;;;;5068811;28;38027;-76
2021/07/28 04:27:32;;;;;;;36.55;23.23;;;;;;;;;;5066122;28;47157;-77
2021/07/28 04:29:58;;;;;;;32.17;21.73;;;;;;;;;;5069249;28;39594;-76
2021/07/28 04:32:25;;;;;;;27.92;20.63;;;;;;;;;;5067429;28;38442;-77
2021/07/28 04:34:51;;;;;;;28.02;19.95;;;;;;;;;;5049588;28;36308;-75
2021/07/28 04:37:20;;;;;;;33.63;22.30;;;;;;;;;;5048052;28;38101;-75
2021/07/28 04:39:47;;;;;;;29.63;19.70;;;;;;;;;;5049868;28;37231;-75
2021/07/28 04:42:13;;;;;;;28.95;20.75;;;;;;;;;;5065758;28;38181;-75
2021/07/28 04:44:40;;;;;;;22.52;17.33;;;;;;;;;;5067803;28;38376;-75
2021/07/28 04:47:06;;;;;;;22.23;17.08;;;;;;;;;;5045968;28;39174;-75
2021/07/28 04:49:32;;;;;;;20.13;17.67;;;;;;;;;;5046059;28;39409;-75
2021/07/28 04:51:59;;;;;;;22.13;16.30;;;;;;;;;;5028926;28;37703;-75
2021/07/28 04:54:25;;;;;;;22.02;16.35;;;;;;;;;;5028446;28;35812;-75
2021/07/28 04:56:51;;;;;;;20.45;15.45;;;;;;;;;;5041469;28;37997;-75
2021/07/28 04:59:18;;;;;;;20.95;15.55;;;;;;;;;;5064846;28;37366;-77
2021/07/28 05:01:44;;;;;;;29.75;15.55;;;;;;;;;;5067225;28;39513;-74
2021/07/28 05:04:11;;;;;;;20.35;15.07;;;;;;;;;;5064448;28;37431;-77
2021/07/28 05:06:40;;;;;;;22.77;15.25;;;;;;;;;;5065224;28;38544;-76
2021/07/28 05:09:08;;;;;;;21.88;14.15;;;;;;;;;;5064666;28;37400;-77
2021/07/28 05:11:34;;;;;;;23.90;14.88;;;;;;;;;;5066058;28;38616;-75
2021/07/28 05:14:01;;;;;;;19.20;14.35;;;;;;;;;;5065476;28;35768;-75
2021/07/28 05:16:27;;;;;;;24.77;15.23;;;;;;;;;;5066279;28;48321;-75
2021/07/28 05:18:53;;;;;;;18.33;13.48;;;;;;;;;;5068823;28;38187;-75
2021/07/28 05:21:20;;;;;;;23.00;14.93;;;;;;;;;;5063959;28;37572;-75
2021/07/28 05:23:46;;;;;;;19.65;13.90;;;;;;;;;;5064242;28;36113;-75
2021/07/28 05:26:13;;;;;;;21.52;13.43;;;;;;;;;;5064567;28;37691;-75
2021/07/28 05:28:39;;;;;;;17.85;12.38;;;;;;;;;;5066800;28;38887;-75
2021/07/28 05:31:06;;;;;;;18.73;11.60;;;;;;;;;;5062880;28;39941;-75
2021/07/28 05:33:35;;;;;;;18.30;12.68;;;;;;;;;;5065565;28;37653;-75
2021/07/28 05:36:01;;;;;;;20.17;11.15;;;;;;;;;;5065466;28;40387;-74
2021/07/28 05:38:28;;;;;;;21.25;11.13;;;;;;;;;;5047607;28;47374;-75
2021/07/28 05:40:55;;;;;;;17.58;10.57;;;;;;;;;;5065616;28;38516;-75
2021/07/28 05:43:24;;;;;;;15.85;10.35;;;;;;;;;;5064783;28;37682;-75
2021/07/28 05:45:51;;;;;;;13.80;9.50;;;;;;;;;;5063313;28;39035;-76
2021/07/28 05:48:17;;;;;;;14.30;9.80;;;;;;;;;;5067314;28;38779;-77
2021/07/28 05:50:44;;;;;;;14.05;9.80;;;;;;;;;;5048303;28;39928;-76
2021/07/28 05:53:10;;;;;;;13.45;9.52;;;;;;;;;;5065404;28;36673;-76
2021/07/28 05:55:37;;;;;;;15.73;8.93;;;;;;;;;;5055234;28;38565;-77
2021/07/28 05:58:03;;;;;;;15.02;8.70;;;;;;;;;;5037690;28;42037;-75
2021/07/28 06:00:30;;;;;;;14.52;8.43;;;;;;;;;;5063979;28;38043;-74
2021/07/28 06:02:56;;;;;;;10.40;7.53;;;;;;;;;;5067209;28;37290;-74
2021/07/28 06:05:23;;;;;;;14.88;8.15;;;;;;;;;;5018768;28;38024;-76
2021/07/28 06:07:49;;;;;;;13.55;7.72;;;;;;;;;;5045442;28;38802;-74
2021/07/28 06:10:15;;;;;;;12.13;7.93;;;;;;;;;;5058689;28;38176;-77
2021/07/28 06:12:42;;;;;;;12.80;7.35;;;;;;;;;;5048636;28;37964;-77
2021/07/28 06:15:08;;;;;;;14.20;8.48;;;;;;;;;;5045829;28;40102;-76
2021/07/28 06:17:35;;;;;;;11.13;7.53;;;;;;;;;;5048422;28;38693;-77
2021/07/28 06:20:01;;;;;;;11.07;7.50;;;;;;;;;;5064254;28;39171;-76
2021/07/28 06:22:27;;;;;;;14.30;8.05;;;;;;;;;;5064000;28;37164;-76
2021/07/28 06:24:56;;;;;;;14.30;7.70;;;;;;;;;;5066401;28;39819;-76
2021/07/28 06:27:23;;;;;;;10.40;7.25;;;;;;;;;;5062232;28;37562;-75
2021/07/28 06:29:49;;;;;;;12.75;7.85;;;;;;;;;;5066347;28;38505;-76
2021/07/28 06:32:15;;;;;;;14.07;7.85;;;;;;;;;;5063134;28;39567;-75
2021/07/28 06:34:42;;;;;;;12.98;8.75;;;;;;;;;;5069592;28;39667;-75
2021/07/28 06:37:09;;;;;;;15.52;8.98;;;;;;;;;;5068581;28;39637;-75
2021/07/28 06:39:36;;;;;;;12.13;7.55;;;;;;;;;;5067215;28;37124;-75
2021/07/28 06:42:02;;;;;;;16.92;8.32;;;;;;;;;;5068682;28;36714;-75
2021/07/28 06:44:28;;;;;;;18.83;8.93;;;;;;;;;;5068160;28;39019;-75
2021/07/28 06:46:55;;;;;;;12.32;8.10;;;;;;;;;;5063990;28;39007;-76
2021/07/28 06:49:21;;;;;;;17.92;8.98;;;;;;;;;;5041831;28;37932;-75
2021/07/28 06:51:47;;;;;;;18.85;8.30;;;;;;;;;;5046359;28;40136;-75
2021/07/28 06:54:16;;;;;;;9.95;7.50;;;;;;;;;;5041453;28;39963;-76
2021/07/28 06:56:42;;;;;;;13.73;7.80;;;;;;;;;;5068286;28;39680;-75
2021/07/28 06:59:09;;;;;;;13.65;8.30;;;;;;;;;;5070262;28;38310;-75
2021/07/28 07:01:35;;;;;;;14.68;6.88;;;;;;;;;;5050912;28;38933;-76
2021/07/28 07:04:02;;;;;;;10.27;6.60;;;;;;;;;;5052457;28;42537;-75
2021/07/28 07:06:30;;;;;;;10.20;6.15;;;;;;;;;;5050656;28;49239;-75
2021/07/28 07:08:57;;;;;;;9.35;5.70;;;;;;;;;;5052036;28;36953;-77
2021/07/28 07:11:26;;;;;;;12.70;6.05;;;;;;;;;;5068695;28;36765;-76
2021/07/28 07:13:53;;;;;;;8.90;5.22;;;;;;;;;;5052263;28;41217;-75
2021/07/28 07:16:21;;;;;;;12.07;5.97;;;;;;;;;;5068536;28;39410;-77
2021/07/28 07:18:50;;;;;;;11.38;6.35;;;;;;;;;;5050205;28;37383;-77
2021/07/28 07:21:17;;;;;;;8.38;5.60;;;;;;;;;;5068062;28;36658;-75
2021/07/28 07:23:46;;;;;;;14.65;6.00;;;;;;;;;;5067069;28;40962;-76
2021/07/28 07:26:12;;;;;;;12.82;5.63;;;;;;;;;;5068869;28;38743;-76
2021/07/28 07:28:38;;;;;;;10.73;5.28;;;;;;;;;;5069088;28;38328;-77
2021/07/28 07:31:09;;;;;;;8.10;4.78;;;;;;;;;;5058172;28;36960;-75
2021/07/28 07:33:41;;;;;;;11.45;5.15;;;;;;;;;;5067238;28;40585;-77
2021/07/28 07:36:17;;;;;;;9.23;4.60;;;;;;;;;;5066146;28;41934;-77
2021/07/28 07:38:44;;;;;;;9.98;4.28;;;;;;;;;;5068167;28;38895;-76
2021/07/28 07:41:16;;;;;;;10.13;4.55;;;;;;;;;;5060071;28;37187;-76
2021/07/28 07:43:43;;;;;;;10.80;4.80;;;;;;;;;;5068067;28;38798;-76
2021/07/28 07:46:09;;;;;;;11.38;4.30;;;;;;;;;;5065752;28;37866;-76
2021/07/28 07:48:35;;;;;;;11.70;4.72;;;;;;;;;;5069216;28;38376;-78
2021/07/28 07:51:02;;;;;;;9.70;4.35;;;;;;;;;;5068593;28;37873;-76
2021/07/28 07:53:31;;;;;;;10.80;5.13;;;;;;;;;;5067893;28;39306;-76
2021/07/28 07:56:02;;;;;;;8.85;4.20;;;;;;;;;;5056465;28;38529;-77
2021/07/28 07:58:29;;;;;;;9.43;4.80;;;;;;;;;;5066947;28;48593;-76
2021/07/28 08:00:58;;;;;;;13.73;5.07;;;;;;;;;;5066979;28;37637;-76
2021/07/28 08:03:24;;;;;;;8.07;4.55;;;;;;;;;;5056007;28;37862;-77
2021/07/28 08:05:53;;;;;;;9.23;4.38;;;;;;;;;;5066035;28;39449;-76
2021/07/28 08:08:21;;;;;;;10.05;4.45;;;;;;;;;;5068764;28;38216;-76
2021/07/28 08:10:47;;;;;;;8.27;3.97;;;;;;;;;;5069264;28;37074;-76
2021/07/28 08:13:16;;;;;;;11.68;4.80;;;;;;;;;;5057313;28;38585;-77
2021/07/28 08:15:42;;;;;;;12.75;3.92;;;;;;;;;;5050367;28;39557;-76
2021/07/28 08:18:09;;;;;;;8.57;4.85;;;;;;;;;;5069062;28;38212;-76
2021/07/28 08:20:36;;;;;;;12.48;4.72;;;;;;;;;;5066624;28;35629;-77
2021/07/28 08:23:03;;;;;;;9.95;4.18;;;;;;;;;;5066824;28;39996;-76
2021/07/28 08:25:30;;;;;;;8.77;4.65;;;;;;;;;;5065909;28;38740;-76
2021/07/28 08:27:56;;;;;;;12.77;4.38;;;;;;;;;;5067443;28;39069;-77
2021/07/28 08:30:23;;;;;;;8.95;4.32;;;;;;;;;;5065146;28;36006;-76
2021/07/28 08:32:49;;;;;;;8.95;4.80;;;;;;;;;;5069221;28;38683;-76
2021/07/28 08:35:15;;;;;;;9.30;4.35;;;;;;;;;;5065953;28;39244;-77
2021/07/28 08:37:42;;;;;;;9.25;3.88;;;;;;;;;;5066822;28;38082;-76
2021/07/28 08:40:10;;;;;;;10.68;4.20;;;;;;;;;;5047580;28;36105;-76
2021/07/28 08:42:37;;;;;;;8.65;4.90;;;;;;;;;;5068320;28;38854;-76
2021/07/28 08:45:04;;;;;;;13.00;4.57;;;;;;;;;;5068095;28;38243;-78
2021/07/28 08:47:30;;;;;;;11.70;4.90;;;;;;;;;;5064179;28;47637;-75
2021/07/28 08:49:57;;;;;;;10.95;4.57;;;;;;;;;;5050459;28;37697;-74
2021/07/28 08:52:24;;;;;;;14.65;5.22;;;;;;;;;;5048954;28;40240;-75
2021/07/28 08:54:50;;;;;;;12.13;4.13;;;;;;;;;;5048486;28;39473;-75
2021/07/28 08:57:17;;;;;;;9.80;3.83;;;;;;;;;;5066653;28;38926;-76
2021/07/28 08:59:43;;;;;;;8.07;4.10;;;;;;;;;;5065769;28;38014;-74
2021/07/28 09:02:09;;;;;;;10.40;4.22;;;;;;;;;;5066833;28;38768;-74
2021/07/28 09:04:36;;;;;;;8.38;3.67;;;;;;;;;;5067436;28;39167;-75
2021/07/28 09:07:13;;;;;;;11.25;3.45;;;;;;;;;;5067153;28;38418;-75
2021/07/28 09:09:55;;;;;;;6.28;3.72;;;;;;;;;;5065359;28;36410;-77
2021/07/28 09:12:30;;;;;;;12.25;4.32;;;;;;;;;;5066643;28;39370;-77
2021/07/28 09:15:01;;;;;;;15.63;5.40;;;;;;;;;;5049355;28;41183;-76
2021/07/28 09:17:28;;;;;;;10.52;4.57;;;;;;;;;;5064296;28;39756;-76
2021/07/28 09:19:56;;;;;;;12.85;5.03;;;;;;;;;;5050911;28;35696;-78
2021/07/28 09:22:23;;;;;;;9.70;4.63;;;;;;;;;;5047141;28;41106;-77
2021/07/28 09:25:10;;;;;;;10.25;4.32;;;;;;;;;;5066296;28;41455;-77
2021/07/28 09:27:44;;;;;;;11.95;4.68;;;;;;;;;;5050673;28;47189;-77
2021/07/28 09:30:31;;;;;;;11.73;4.90;;;;;;;;;;5048026;28;37491;-76
2021/07/28 09:33:10;;;;;;;9.95;4.35;;;;;;;;;;5039162;28;39273;-78
2021/07/28 09:35:55;;;;;;;7.78;3.65;;;;;;;;;;5048972;28;48855;-77
2021/07/28 09:38:29;;;;;;;11.88;4.20;;;;;;;;;;5016441;28;37448;-77
2021/07/28 09:41:11;;;;;;;11.13;4.20;;;;;;;;;;5065813;28;37254;-76
2021/07/28 09:43:56;;;;;;;7.10;3.88;;;;;;;;;;5064521;28;47391;-76
2021/07/28 09:46:28;;;;;;;10.38;4.30;;;;;;;;;;5068640;28;38962;-78
2021/07/28 09:48:54;;;;;;;10.65;3.85;;;;;;;;;;5070045;28;37457;-76
2021/07/28 09:51:37;;;;;;;8.65;3.58;;;;;;;;;;5066074;28;37824;-76
2021/07/28 09:54:08;;;;;;;6.50;3.33;;;;;;;;;;5051281;28;38010;-78
2021/07/28 09:56:53;;;;;;;10.18;3.40;;;;;;;;;;5055875;28;39298;-76
2021/07/28 09:59:24;;;;;;;6.93;3.60;;;;;;;;;;5057403;28;38512;-79
2021/07/28 10:01:51;;;;;;;9.52;3.67;;;;;;;;;;5068398;28;36456;-76
2021/07/28 10:04:21;;;;;;;6.50;2.92;;;;;;;;;;5067991;28;38848;-76
2021/07/28 10:06:48;;;;;;;8.35;3.20;;;;;;;;;;5051896;28;38313;-76
2021/07/28 10:09:18;;;;;;;6.63;3.30;;;;;;;;;;5067426;28;38619;-76
2021/07/28 10:11:45;;;;;;;7.55;2.88;;;;;;;;;;5069428;28;37191;-77
2021/07/28 10:14:15;;;;;;;10.70;3.30;;;;;;;;;;5051857;28;38049;-78
2021/07/28 10:16:41;;;;;;;8.13;3.03;;;;;;;;;;5049699;28;39200;-76
2021/07/28 10:19:08;;;;;;;5.47;2.70;;;;;;;;;;5065797;28;39234;-77
2021/07/28 10:21:35;;;;;;;6.20;2.90;;;;;;;;;;5047308;28;35932;-77
2021/07/28 10:24:02;;;;;;;6.55;2.60;;;;;;;;;;5066226;28;37777;-77
2021/07/28 10:26:30;;;;;;;5.32;2.63;;;;;;;;;;5065629;28;47487;-77
2021/07/28 10:28:56;;;;;;;7.65;2.72;;;;;;;;;;5066435;28;38720;-77
2021/07/28 10:31:25;;;;;;;6.35;3.08;;;;;;;;;;5066591;28;35848;-77
2021/07/28 10:33:57;;;;;;;5.18;3.00;;;;;;;;;;5068840;28;38836;-77
2021/07/28 10:36:42;;;;;;;6.57;2.38;;;;;;;;;;5066840;28;38299;-77
2021/07/28 10:39:09;;;;;;;6.43;2.70;;;;;;;;;;5057933;28;39197;-77
2021/07/28 10:41:44;;;;;;;6.70;2.67;;;;;;;;;;5065345;28;37412;-78
2021/07/28 10:44:12;;;;;;;5.43;2.55;;;;;;;;;;5069376;28;38518;-79
2021/07/28 10:46:54;;;;;;;5.07;2.47;;;;;;;;;;5069326;28;39559;-77
2021/07/28 10:49:35;;;;;;;9.13;2.67;;;;;;;;;;5050500;28;39100;-78
2021/07/28 10:52:03;;;;;;;5.47;2.47;;;;;;;;;;5047142;28;36786;-77
2021/07/28 10:54:50;;;;;;;6.78;2.50;;;;;;;;;;5064533;28;40087;-77
2021/07/28 10:57:35;;;;;;;6.25;2.20;;;;;;;;;;5047541;28;38433;-77
2021/07/28 11:00:02;;;;;;;9.32;2.30;;;;;;;;;;5066732;28;38187;-77
2021/07/28 11:02:48;;;;;;;7.50;2.72;;;;;;;;;;5067840;28;37101;-78
2021/07/28 11:05:22;;;;;;;6.20;2.63;;;;;;;;;;5067441;28;39192;-77
2021/07/28 11:10:30;;;;;;;10.00;2.75;;;;;;;;;;5065041;28;49528;-77
2021/07/28 11:12:57;;;;;;;7.68;2.90;;;;;;;;;;5049631;28;38631;-77
2021/07/28 11:15:25;;;;;;;6.38;2.25;;;;;;;;;;5064525;28;38614;-79
2021/07/28 11:17:57;;;;;;;6.05;2.35;;;;;;;;;;5068484;28;39217;-77
2021/07/28 11:20:27;;;;;;;7.28;2.53;;;;;;;;;;5067477;28;38566;-77
2021/07/28 11:22:53;;;;;;;5.82;2.88;;;;;;;;;;5069865;28;37160;-77
2021/07/28 11:25:20;;;;;;;5.70;2.90;;;;;;;;;;5068861;28;38714;-77
2021/07/28 11:28:05;;;;;;;5.82;2.70;;;;;;;;;;5071012;28;38582;-78
2021/07/28 11:30:31;;;;;;;5.50;2.95;;;;;;;;;;5068357;28;47129;-77
2021/07/28 11:33:14;;;;;;;5.90;3.53;;;;;;;;;;5050185;28;35729;-77
2021/07/28 11:35:40;;;;;;;;;;;;;;;;;;5051681;28;47165;-77
2021/07/28 11:38:32;;;;;;;7.45;4.57;;;;;;;;;;5033243;28;39648;-77
2021/07/28 11:41:01;;;;;;;10.30;4.90;;;;;;;;;;5063730;28;37902;-77
2021/07/28 11:43:28;;;;;;;8.05;4.50;;;;;;;;;;5067818;28;47171;-76
2021/07/28 11:45:59;;;;;;;8.65;4.65;;;;;;;;;;5069610;28;39018;-77
2021/07/28 11:48:37;;;;;;;5.65;5.03;;;;;;;;;;5073841;28;38844;-78
2021/07/28 11:51:23;;;;;;;8.70;5.05;;;;;;;;;;5054092;28;38648;-78
2021/07/28 11:53:49;;;;;;;8.35;5.35;;;;;;;;;;5071979;28;37921;-78
2021/07/28 11:56:16;;;;;;;6.95;5.22;;;;;;;;;;5069635;28;39120;-78
2021/07/28 11:58:47;;;;;;;9.15;5.43;;;;;;;;;;5066299;28;38146;-77
2021/07/28 12:01:20;;;;;;;6.95;4.65;;;;;;;;;;5050685;28;37948;-77
2021/07/28 12:03:48;;;;;;;9.40;4.15;;;;;;;;;;5068104;28;37586;-76
2021/07/28 12:06:14;;;;;;;7.38;4.07;;;;;;;;;;5048493;28;42071;-77
2021/07/28 12:08:41;;;;;;;7.30;3.58;;;;;;;;;;5051457;28;39484;-77
2021/07/28 12:11:11;;;;;;;7.32;3.92;;;;;;;;;;5049861;28;39526;-77
2021/07/28 12:13:48;;;;;;;3.75;3.00;;;;;;;;;;5069415;28;35038;-77
2021/07/28 12:16:14;;;;;;;6.65;3.40;;;;;;;;;;5051902;28;40055;-77
2021/07/28 12:18:52;;;;;;;7.50;3.75;;;;;;;;;;5067908;28;38989;-77
2021/07/28 12:21:18;;;;;;;8.95;3.75;;;;;;;;;;5068075;28;37285;-76
2021/07/28 12:23:52;;;;;;;6.13;4.47;;;;;;;;;;5069634;28;36846;-78
2021/07/28 12:26:38;;;;;;;5.47;3.67;;;;;;;;;;5068564;28;38748;-78
2021/07/28 12:29:04;;;;;;;5.53;3.63;;;;;;;;;;5049796;28;38730;-77
2021/07/28 12:31:33;;;;;;;5.40;3.70;;;;;;;;;;5035279;28;47893;-77
2021/07/28 12:34:18;;;;;;;6.53;3.35;;;;;;;;;;5069496;28;37750;-77
2021/07/28 12:36:45;;;;;;;5.70;3.33;;;;;;;;;;5049345;28;48236;-78
2021/07/28 12:39:11;;;;;;;5.68;3.22;;;;;;;;;;5033378;28;38230;-77
2021/07/28 12:41:38;;;;;;;4.40;2.83;;;;;;;;;;5067951;28;38827;-77
2021/07/28 12:44:05;;;;;;;5.50;2.97;;;;;;;;;;5068332;28;36924;-77
2021/07/28 12:46:31;;;;;;;4.68;2.85;;;;;;;;;;5067947;28;41681;-77
2021/07/28 12:48:57;;;;;;;4.07;2.42;;;;;;;;;;5071378;28;39567;-77
2021/07/28 12:51:24;;;;;;;9.13;3.50;;;;;;;;;;5055579;28;38937;-77
2021/07/28 12:53:50;;;;;;;3.92;3.30;;;;;;;;;;5030534;28;37398;-77
2021/07/28 12:56:16;;;;;;;7.13;3.38;;;;;;;;;;5032248;28;40875;-78
2021/07/28 12:58:43;;;;;;;6.40;3.50;;;;;;;;;;5069020;28;39544;-77
2021/07/28 13:01:10;;;;;;;6.40;3.65;;;;;;;;;;5070429;28;39439;-77
2021/07/28 13:03:37;;;;;;;5.35;4.03;;;;;;;;;;5070599;28;39754;-78
2021/07/28 13:06:08;;;;;;;7.78;4.70;;;;;;;;;;5069158;28;38079;-78
2021/07/28 13:08:34;;;;;;;9.77;5.10;;;;;;;;;;5071681;28;39042;-78
2021/07/28 13:11:01;;;;;;;5.65;4.07;;;;;;;;;;5066274;28;38008;-79
2021/07/28 13:13:27;;;;;;;7.20;4.10;;;;;;;;;;5058257;28;47656;-77
2021/07/28 13:15:55;;;;;;;6.38;3.30;;;;;;;;;;5075332;28;39370;-77
2021/07/28 13:18:21;;;;;;;8.48;3.00;;;;;;;;;;5073659;28;37797;-76
2021/07/28 13:20:47;;;;;;;7.70;3.08;;;;;;;;;;5064954;28;40761;-76
2021/07/28 13:23:17;;;;;;;8.27;3.35;;;;;;;;;;5049532;28;39693;-76
2021/07/28 13:25:47;;;;;;;6.00;3.20;;;;;;;;;;5053352;28;39052;-77
2021/07/28 13:28:14;;;;;;;7.05;2.70;;;;;;;;;;5051828;28;40022;-76
2021/07/28 13:30:40;;;;;;;8.70;2.97;;;;;;;;;;5072537;28;39280;-77
2021/07/28 13:33:07;;;;;;;7.32;2.42;;;;;;;;;;5071202;28;37408;-76
2021/07/28 13:35:35;;;;;;;9.95;2.50;;;;;;;;;;5069978;28;40912;-77
2021/07/28 13:38:02;;;;;;;9.32;2.85;;;;;;;;;;5071086;28;38417;-76
2021/07/28 13:40:28;;;;;;;6.85;2.75;;;;;;;;;;5068096;28;48529;-76
2021/07/28 13:42:55;;;;;;;8.10;2.58;;;;;;;;;;5068707;28;37144;-77
2021/07/28 13:45:22;;;;;;;13.73;3.10;;;;;;;;;;5066255;28;39701;-76
2021/07/28 13:47:48;;;;;;;8.65;2.78;;;;;;;;;;5067112;28;38448;-75
2021/07/28 13:50:15;;;;;;;8.70;3.17;;;;;;;;;;5046186;28;36947;-76
2021/07/28 13:52:42;;;;;;;6.68;2.90;;;;;;;;;;5068585;28;37360;-76
2021/07/28 13:55:08;;;;;;;8.43;2.80;;;;;;;;;;5067497;28;39685;-76
2021/07/28 13:57:35;;;;;;;6.60;3.20;;;;;;;;;;5067498;28;39241;-75
2021/07/28 14:00:01;;;;;;;13.68;3.90;;;;;;;;;;5066975;28;38096;-76
2021/07/28 14:02:28;;;;;;;8.80;3.35;;;;;;;;;;5067495;28;37605;-76
2021/07/28 14:04:57;;;;;;;9.07;3.50;;;;;;;;;;5067837;28;39788;-76
2021/07/28 14:07:24;;;;;;;11.57;3.33;;;;;;;;;;5067538;28;39365;-77
2021/07/28 14:09:52;;;;;;;11.73;3.60;;;;;;;;;;5065796;28;37170;-77
2021/07/28 14:12:22;;;;;;;7.20;3.13;;;;;;;;;;5067134;28;35784;-77
2021/07/28 14:14:49;;;;;;;16.60;3.00;;;;;;;;;;5065015;28;39847;-77
2021/07/28 14:17:15;;;;;;;11.23;3.53;;;;;;;;;;5066489;28;38594;-77
2021/07/28 14:19:42;;;;;;;9.82;3.38;;;;;;;;;;5060695;28;37912;-77
2021/07/28 14:22:08;;;;;;;9.68;2.70;;;;;;;;;;5045924;28;37745;-77
2021/07/28 14:24:35;;;;;;;11.20;2.80;;;;;;;;;;5066027;28;37496;-77
2021/07/28 14:27:02;;;;;;;13.77;3.78;;;;;;;;;;5065956;28;38181;-77
2021/07/28 14:29:28;;;;;;;9.65;2.97;;;;;;;;;;5047476;28;47342;-77
2021/07/28 14:31:54;;;;;;;9.98;3.10;;;;;;;;;;5065668;28;37197;-75
2021/07/28 14:34:21;;;;;;;11.55;3.00;;;;;;;;;;5064105;28;38759;-76
2021/07/28 14:36:47;;;;;;;12.32;3.35;;;;;;;;;;5065401;28;39650;-77
2021/07/28 14:39:14;;;;;;;12.07;2.65;;;;;;;;;;5066877;28;38159;-76
2021/07/28 14:41:40;;;;;;;12.95;3.22;;;;;;;;;;5065232;28;37225;-76